sensor_id;sensor_type;location;lat;lon;timestamp;P1;durP1;ratioP1;P2;durP2;ratioP2
68076;SDS011;54866;53.458;14.540;2023-05-01T00:11:05;9.30;;;5.80;;
68076;SDS011;54866;53.458;14.540;2023-05-01T00:13:36;8.30;;;4.90;;
68076;SDS011;54866;53.458;14.540;2023-05-01T00:16:08;9.30;;;5.20;;
68076;SDS011;54866;53.458;14.540;2023-05-01T00:18:38;8.20;;;5.40;;
68076;SDS011;54866;53.458;14.540;2023-05-01T00:21:08;7.80;;;5.50;;
68076;SDS011;54866;53.458;14.540;2023-05-01T00:23:37;8.20;;;5.20;;
68076;SDS011;54866;53.458;14.540;2023-05-01T00:26:07;8.00;;;5.40;;
68076;SDS011;54866;53.458;14.540;2023-05-01T00:28:36;9.70;;;5.70;;
68076;SDS011;54866;53.458;14.540;2023-05-01T00:31:06;9.40;;;5.50;;
68076;SDS011;54866;53.458;14.540;2023-05-01T00:33:36;9.80;;;5.50;;
68076;SDS011;54866;53.458;14.540;2023-05-01T00:36:06;9.60;;;6.10;;
68076;SDS011;54866;53.458;14.540;2023-05-01T00:38:36;7.60;;;4.80;;
68076;SDS011;54866;53.458;14.540;2023-05-01T00:41:06;7.70;;;5.80;;
68076;SDS011;54866;53.458;14.540;2023-05-01T00:43:36;9.80;;;5.10;;
68076;SDS011;54866;53.458;14.540;2023-05-01T00:46:05;10.00;;;5.70;;
68076;SDS011;54866;53.458;14.540;2023-05-01T00:48:36;8.10;;;5.30;;
68076;SDS011;54866;53.458;14.540;2023-05-01T00:51:06;9.30;;;5.80;;
68076;SDS011;54866;53.458;14.540;2023-05-01T00:53:36;7.40;;;4.90;;
68076;SDS011;54866;53.458;14.540;2023-05-01T00:56:07;8.90;;;6.00;;
68076;SDS011;54866;53.458;14.540;2023-05-01T00:58:38;10.10;;;5.10;;
68076;SDS011;54866;53.458;14.540;2023-05-01T01:01:07;9.50;;;5.70;;
68076;SDS011;54866;53.458;14.540;2023-05-01T01:03:37;8.20;;;5.20;;
68076;SDS011;54866;53.458;14.540;2023-05-01T01:06:08;8.60;;;5.10;;
68076;SDS011;54866;53.458;14.540;2023-05-01T01:08:45;7.60;;;4.80;;
68076;SDS011;54866;53.458;14.540;2023-05-01T01:11:26;10.00;;;5.90;;
68076;SDS011;54866;53.458;14.540;2023-05-01T01:14:01;11.20;;;6.00;;
68076;SDS011;54866;53.458;14.540;2023-05-01T01:16:36;8.70;;;5.30;;
68076;SDS011;54866;53.458;14.540;2023-05-01T01:19:24;8.50;;;4.90;;
68076;SDS011;54866;53.458;14.540;2023-05-01T01:22:16;10.80;;;5.70;;
68076;SDS011;54866;53.458;14.540;2023-05-01T01:25:06;9.20;;;4.90;;
68076;SDS011;54866;53.458;14.540;2023-05-01T01:28:01;6.90;;;4.30;;
68076;SDS011;54866;53.458;14.540;2023-05-01T01:31:07;7.40;;;4.60;;
68076;SDS011;54866;53.458;14.540;2023-05-01T01:36:33;6.50;;;4.20;;
68076;SDS011;54866;53.458;14.540;2023-05-01T01:39:12;10.20;;;4.90;;
68076;SDS011;54866;53.458;14.540;2023-05-01T01:41:51;5.60;;;4.10;;
68076;SDS011;54866;53.458;14.540;2023-05-01T01:44:31;8.00;;;4.90;;
68076;SDS011;54866;53.458;14.540;2023-05-01T01:47:11;8.70;;;5.40;;
68076;SDS011;54866;53.458;14.540;2023-05-01T01:49:43;7.60;;;4.00;;
68076;SDS011;54866;53.458;14.540;2023-05-01T01:52:16;5.70;;;4.40;;
68076;SDS011;54866;53.458;14.540;2023-05-01T01:54:49;7.80;;;4.10;;
68076;SDS011;54866;53.458;14.540;2023-05-01T01:57:24;7.60;;;5.30;;
68076;SDS011;54866;53.458;14.540;2023-05-01T01:59:55;8.70;;;4.60;;
68076;SDS011;54866;53.458;14.540;2023-05-01T02:02:26;8.90;;;5.10;;
68076;SDS011;54866;53.458;14.540;2023-05-01T02:04:57;7.00;;;4.40;;
68076;SDS011;54866;53.458;14.540;2023-05-01T02:07:28;8.30;;;4.70;;
68076;SDS011;54866;53.458;14.540;2023-05-01T02:09:58;8.50;;;4.00;;
68076;SDS011;54866;53.458;14.540;2023-05-01T02:12:31;7.20;;;4.80;;
68076;SDS011;54866;53.458;14.540;2023-05-01T02:15:01;6.80;;;4.20;;
68076;SDS011;54866;53.458;14.540;2023-05-01T02:17:33;7.40;;;3.90;;
68076;SDS011;54866;53.458;14.540;2023-05-01T02:20:05;6.40;;;3.90;;
68076;SDS011;54866;53.458;14.540;2023-05-01T02:22:38;9.00;;;4.40;;
68076;SDS011;54866;53.458;14.540;2023-05-01T02:25:09;10.60;;;4.60;;
68076;SDS011;54866;53.458;14.540;2023-05-01T02:27:42;5.60;;;3.80;;
68076;SDS011;54866;53.458;14.540;2023-05-01T02:32:42;7.10;;;4.00;;
68076;SDS011;54866;53.458;14.540;2023-05-01T02:35:12;7.80;;;4.40;;
68076;SDS011;54866;53.458;14.540;2023-05-01T02:37:42;9.80;;;4.50;;
68076;SDS011;54866;53.458;14.540;2023-05-01T02:40:12;8.40;;;4.50;;
68076;SDS011;54866;53.458;14.540;2023-05-01T02:42:43;5.60;;;4.00;;
68076;SDS011;54866;53.458;14.540;2023-05-01T02:45:16;6.50;;;3.60;;
68076;SDS011;54866;53.458;14.540;2023-05-01T02:47:49;6.30;;;4.30;;
68076;SDS011;54866;53.458;14.540;2023-05-01T02:50:21;7.40;;;4.10;;
68076;SDS011;54866;53.458;14.540;2023-05-01T02:52:53;7.60;;;4.10;;
68076;SDS011;54866;53.458;14.540;2023-05-01T02:55:23;8.10;;;4.80;;
68076;SDS011;54866;53.458;14.540;2023-05-01T02:57:56;6.40;;;3.80;;
68076;SDS011;54866;53.458;14.540;2023-05-01T03:00:26;9.60;;;4.60;;
68076;SDS011;54866;53.458;14.540;2023-05-01T03:02:55;7.40;;;4.40;;
68076;SDS011;54866;53.458;14.540;2023-05-01T03:05:25;8.40;;;3.90;;
68076;SDS011;54866;53.458;14.540;2023-05-01T03:07:54;9.00;;;3.80;;
68076;SDS011;54866;53.458;14.540;2023-05-01T03:10:24;9.70;;;4.20;;
68076;SDS011;54866;53.458;14.540;2023-05-01T03:12:54;8.60;;;4.30;;
68076;SDS011;54866;53.458;14.540;2023-05-01T03:15:23;9.40;;;4.50;;
68076;SDS011;54866;53.458;14.540;2023-05-01T03:17:53;6.60;;;3.50;;
68076;SDS011;54866;53.458;14.540;2023-05-01T03:20:22;9.30;;;4.70;;
68076;SDS011;54866;53.458;14.540;2023-05-01T03:22:52;7.10;;;4.20;;
68076;SDS011;54866;53.458;14.540;2023-05-01T03:25:22;7.90;;;3.80;;
68076;SDS011;54866;53.458;14.540;2023-05-01T03:27:51;7.70;;;3.70;;
68076;SDS011;54866;53.458;14.540;2023-05-01T03:30:21;9.00;;;4.50;;
68076;SDS011;54866;53.458;14.540;2023-05-01T03:32:50;9.00;;;4.40;;
68076;SDS011;54866;53.458;14.540;2023-05-01T03:35:20;7.60;;;4.40;;
68076;SDS011;54866;53.458;14.540;2023-05-01T03:37:50;6.70;;;4.40;;
68076;SDS011;54866;53.458;14.540;2023-05-01T03:40:19;10.10;;;5.80;;
68076;SDS011;54866;53.458;14.540;2023-05-01T03:42:49;7.90;;;5.60;;
68076;SDS011;54866;53.458;14.540;2023-05-01T03:45:18;8.40;;;4.60;;
68076;SDS011;54866;53.458;14.540;2023-05-01T03:47:48;6.80;;;4.90;;
68076;SDS011;54866;53.458;14.540;2023-05-01T03:50:18;10.40;;;5.20;;
68076;SDS011;54866;53.458;14.540;2023-05-01T03:52:47;7.00;;;5.00;;
68076;SDS011;54866;53.458;14.540;2023-05-01T03:55:17;10.80;;;4.70;;
68076;SDS011;54866;53.458;14.540;2023-05-01T03:57:46;9.10;;;5.00;;
68076;SDS011;54866;53.458;14.540;2023-05-01T04:00:18;10.20;;;4.70;;
68076;SDS011;54866;53.458;14.540;2023-05-01T04:02:47;7.30;;;4.80;;
68076;SDS011;54866;53.458;14.540;2023-05-01T04:05:18;8.20;;;4.80;;
68076;SDS011;54866;53.458;14.540;2023-05-01T04:07:48;9.70;;;5.30;;
68076;SDS011;54866;53.458;14.540;2023-05-01T04:10:18;8.40;;;4.90;;
68076;SDS011;54866;53.458;14.540;2023-05-01T04:12:47;13.70;;;7.20;;
68076;SDS011;54866;53.458;14.540;2023-05-01T04:15:17;11.10;;;5.50;;
68076;SDS011;54866;53.458;14.540;2023-05-01T04:17:48;9.00;;;5.30;;
68076;SDS011;54866;53.458;14.540;2023-05-01T04:20:18;10.60;;;6.00;;
68076;SDS011;54866;53.458;14.540;2023-05-01T04:22:48;14.80;;;8.40;;
68076;SDS011;54866;53.458;14.540;2023-05-01T04:25:17;11.40;;;7.10;;
68076;SDS011;54866;53.458;14.540;2023-05-01T04:27:47;9.70;;;6.00;;
68076;SDS011;54866;53.458;14.540;2023-05-01T04:30:16;10.70;;;6.20;;
68076;SDS011;54866;53.458;14.540;2023-05-01T04:32:46;8.90;;;5.70;;
68076;SDS011;54866;53.458;14.540;2023-05-01T04:35:16;9.30;;;6.10;;
68076;SDS011;54866;53.458;14.540;2023-05-01T04:37:45;9.70;;;6.00;;
68076;SDS011;54866;53.458;14.540;2023-05-01T04:40:15;10.90;;;6.10;;
68076;SDS011;54866;53.458;14.540;2023-05-01T04:42:45;8.10;;;5.20;;
68076;SDS011;54866;53.458;14.540;2023-05-01T04:45:15;7.20;;;5.30;;
68076;SDS011;54866;53.458;14.540;2023-05-01T04:47:44;9.70;;;6.40;;
68076;SDS011;54866;53.458;14.540;2023-05-01T04:50:14;8.70;;;5.80;;
68076;SDS011;54866;53.458;14.540;2023-05-01T04:52:44;10.20;;;6.30;;
68076;SDS011;54866;53.458;14.540;2023-05-01T04:55:13;8.40;;;6.40;;
68076;SDS011;54866;53.458;14.540;2023-05-01T04:57:44;9.10;;;6.00;;
68076;SDS011;54866;53.458;14.540;2023-05-01T05:00:14;9.10;;;5.80;;
68076;SDS011;54866;53.458;14.540;2023-05-01T05:02:45;8.80;;;6.40;;
68076;SDS011;54866;53.458;14.540;2023-05-01T05:05:14;10.10;;;6.40;;
68076;SDS011;54866;53.458;14.540;2023-05-01T05:07:44;8.10;;;5.30;;
68076;SDS011;54866;53.458;14.540;2023-05-01T05:10:14;9.30;;;6.40;;
68076;SDS011;54866;53.458;14.540;2023-05-01T05:12:43;10.20;;;5.50;;
68076;SDS011;54866;53.458;14.540;2023-05-01T05:15:13;10.20;;;6.30;;
68076;SDS011;54866;53.458;14.540;2023-05-01T05:17:42;10.60;;;6.70;;
68076;SDS011;54866;53.458;14.540;2023-05-01T05:20:12;7.00;;;5.30;;
68076;SDS011;54866;53.458;14.540;2023-05-01T05:22:42;9.30;;;5.50;;
68076;SDS011;54866;53.458;14.540;2023-05-01T05:25:11;7.80;;;5.70;;
68076;SDS011;54866;53.458;14.540;2023-05-01T05:27:41;7.90;;;5.30;;
68076;SDS011;54866;53.458;14.540;2023-05-01T05:30:11;9.00;;;5.20;;
68076;SDS011;54866;53.458;14.540;2023-05-01T05:32:41;6.40;;;4.80;;
68076;SDS011;54866;53.458;14.540;2023-05-01T05:35:12;6.50;;;5.40;;
68076;SDS011;54866;53.458;14.540;2023-05-01T05:37:43;7.10;;;5.00;;
68076;SDS011;54866;53.458;14.540;2023-05-01T05:40:13;6.60;;;4.60;;
68076;SDS011;54866;53.458;14.540;2023-05-01T05:42:42;5.80;;;4.90;;
68076;SDS011;54866;53.458;14.540;2023-05-01T05:45:12;6.70;;;5.50;;
68076;SDS011;54866;53.458;14.540;2023-05-01T05:47:41;6.90;;;5.10;;
68076;SDS011;54866;53.458;14.540;2023-05-01T05:50:11;6.70;;;5.40;;
68076;SDS011;54866;53.458;14.540;2023-05-01T05:52:41;6.50;;;5.40;;
68076;SDS011;54866;53.458;14.540;2023-05-01T05:55:11;5.40;;;4.30;;
68076;SDS011;54866;53.458;14.540;2023-05-01T05:57:40;6.80;;;5.10;;
68076;SDS011;54866;53.458;14.540;2023-05-01T06:00:12;6.70;;;4.60;;
68076;SDS011;54866;53.458;14.540;2023-05-01T06:02:42;5.60;;;4.20;;
68076;SDS011;54866;53.458;14.540;2023-05-01T06:05:12;6.50;;;5.30;;
68076;SDS011;54866;53.458;14.540;2023-05-01T06:07:41;7.20;;;5.20;;
68076;SDS011;54866;53.458;14.540;2023-05-01T06:10:11;5.00;;;4.40;;
68076;SDS011;54866;53.458;14.540;2023-05-01T06:12:41;6.00;;;4.30;;
68076;SDS011;54866;53.458;14.540;2023-05-01T06:15:11;5.70;;;4.10;;
68076;SDS011;54866;53.458;14.540;2023-05-01T06:17:42;6.40;;;4.30;;
68076;SDS011;54866;53.458;14.540;2023-05-01T06:20:12;4.80;;;4.30;;
68076;SDS011;54866;53.458;14.540;2023-05-01T06:22:41;4.90;;;3.60;;
68076;SDS011;54866;53.458;14.540;2023-05-01T06:25:12;5.10;;;4.10;;
68076;SDS011;54866;53.458;14.540;2023-05-01T06:27:42;5.60;;;3.80;;
68076;SDS011;54866;53.458;14.540;2023-05-01T06:30:12;5.80;;;4.20;;
68076;SDS011;54866;53.458;14.540;2023-05-01T06:32:41;6.00;;;4.70;;
68076;SDS011;54866;53.458;14.540;2023-05-01T06:35:12;4.80;;;4.20;;
68076;SDS011;54866;53.458;14.540;2023-05-01T06:37:42;5.30;;;3.90;;
68076;SDS011;54866;53.458;14.540;2023-05-01T06:40:11;5.00;;;4.40;;
68076;SDS011;54866;53.458;14.540;2023-05-01T06:42:41;6.20;;;5.40;;
68076;SDS011;54866;53.458;14.540;2023-05-01T06:45:11;6.70;;;4.60;;
68076;SDS011;54866;53.458;14.540;2023-05-01T06:47:40;5.50;;;4.60;;
68076;SDS011;54866;53.458;14.540;2023-05-01T06:50:10;4.40;;;3.60;;
68076;SDS011;54866;53.458;14.540;2023-05-01T06:52:40;5.80;;;4.20;;
68076;SDS011;54866;53.458;14.540;2023-05-01T06:55:10;3.90;;;3.50;;
68076;SDS011;54866;53.458;14.540;2023-05-01T06:57:40;4.30;;;3.40;;
68076;SDS011;54866;53.458;14.540;2023-05-01T07:00:11;5.20;;;3.80;;
68076;SDS011;54866;53.458;14.540;2023-05-01T07:02:43;4.80;;;3.00;;
68076;SDS011;54866;53.458;14.540;2023-05-01T07:05:12;4.10;;;3.30;;
68076;SDS011;54866;53.458;14.540;2023-05-01T07:07:42;4.30;;;2.90;;
68076;SDS011;54866;53.458;14.540;2023-05-01T07:10:11;4.10;;;3.30;;
68076;SDS011;54866;53.458;14.540;2023-05-01T07:12:41;4.90;;;3.00;;
68076;SDS011;54866;53.458;14.540;2023-05-01T07:15:10;4.20;;;2.90;;
68076;SDS011;54866;53.458;14.540;2023-05-01T07:17:41;4.30;;;2.60;;
68076;SDS011;54866;53.458;14.540;2023-05-01T07:20:12;3.90;;;2.70;;
68076;SDS011;54866;53.458;14.540;2023-05-01T07:22:43;4.30;;;2.60;;
68076;SDS011;54866;53.458;14.540;2023-05-01T07:25:12;4.00;;;2.80;;
68076;SDS011;54866;53.458;14.540;2023-05-01T07:27:42;4.80;;;3.10;;
68076;SDS011;54866;53.458;14.540;2023-05-01T07:30:11;3.90;;;3.20;;
68076;SDS011;54866;53.458;14.540;2023-05-01T07:32:41;4.60;;;2.70;;
68076;SDS011;54866;53.458;14.540;2023-05-01T07:35:10;4.20;;;2.70;;
68076;SDS011;54866;53.458;14.540;2023-05-01T07:37:40;5.10;;;3.00;;
68076;SDS011;54866;53.458;14.540;2023-05-01T07:40:10;5.40;;;3.20;;
68076;SDS011;54866;53.458;14.540;2023-05-01T07:42:40;5.20;;;3.10;;
68076;SDS011;54866;53.458;14.540;2023-05-01T07:45:10;3.90;;;2.80;;
68076;SDS011;54866;53.458;14.540;2023-05-01T07:47:39;5.30;;;3.40;;
68076;SDS011;54866;53.458;14.540;2023-05-01T07:50:10;7.60;;;4.60;;
68076;SDS011;54866;53.458;14.540;2023-05-01T07:52:39;4.60;;;3.20;;
68076;SDS011;54866;53.458;14.540;2023-05-01T07:55:10;5.00;;;2.90;;
68076;SDS011;54866;53.458;14.540;2023-05-01T07:57:39;5.90;;;3.10;;
68076;SDS011;54866;53.458;14.540;2023-05-01T08:00:10;6.10;;;3.20;;
68076;SDS011;54866;53.458;14.540;2023-05-01T08:02:41;5.70;;;3.00;;
68076;SDS011;54866;53.458;14.540;2023-05-01T08:05:10;4.40;;;3.00;;
68076;SDS011;54866;53.458;14.540;2023-05-01T08:07:40;5.30;;;3.10;;
68076;SDS011;54866;53.458;14.540;2023-05-01T08:10:09;6.40;;;2.90;;
68076;SDS011;54866;53.458;14.540;2023-05-01T08:12:40;7.00;;;3.60;;
68076;SDS011;54866;53.458;14.540;2023-05-01T08:15:09;6.20;;;3.60;;
68076;SDS011;54866;53.458;14.540;2023-05-01T08:17:39;5.10;;;3.20;;
68076;SDS011;54866;53.458;14.540;2023-05-01T08:20:10;3.60;;;2.50;;
68076;SDS011;54866;53.458;14.540;2023-05-01T08:22:40;4.20;;;3.20;;
68076;SDS011;54866;53.458;14.540;2023-05-01T08:25:10;6.00;;;3.00;;
68076;SDS011;54866;53.458;14.540;2023-05-01T08:27:39;6.20;;;3.40;;
68076;SDS011;54866;53.458;14.540;2023-05-01T08:30:09;5.00;;;2.90;;
68076;SDS011;54866;53.458;14.540;2023-05-01T08:32:39;4.90;;;3.10;;
68076;SDS011;54866;53.458;14.540;2023-05-01T08:35:09;4.50;;;3.00;;
68076;SDS011;54866;53.458;14.540;2023-05-01T08:37:38;5.40;;;2.90;;
68076;SDS011;54866;53.458;14.540;2023-05-01T08:40:09;4.40;;;2.80;;
68076;SDS011;54866;53.458;14.540;2023-05-01T08:42:39;3.40;;;2.50;;
68076;SDS011;54866;53.458;14.540;2023-05-01T08:45:09;4.60;;;2.50;;
68076;SDS011;54866;53.458;14.540;2023-05-01T08:47:39;5.60;;;3.50;;
68076;SDS011;54866;53.458;14.540;2023-05-01T08:50:10;3.70;;;2.60;;
68076;SDS011;54866;53.458;14.540;2023-05-01T08:52:40;4.10;;;2.70;;
68076;SDS011;54866;53.458;14.540;2023-05-01T08:55:12;6.60;;;3.00;;
68076;SDS011;54866;53.458;14.540;2023-05-01T08:57:44;7.40;;;3.10;;
68076;SDS011;54866;53.458;14.540;2023-05-01T09:00:15;5.70;;;2.80;;
68076;SDS011;54866;53.458;14.540;2023-05-01T09:02:47;3.90;;;2.80;;
68076;SDS011;54866;53.458;14.540;2023-05-01T09:05:18;4.50;;;2.20;;
68076;SDS011;54866;53.458;14.540;2023-05-01T09:07:48;5.40;;;2.50;;
68076;SDS011;54866;53.458;14.540;2023-05-01T09:10:18;4.70;;;2.40;;
68076;SDS011;54866;53.458;14.540;2023-05-01T09:12:48;5.10;;;2.80;;
68076;SDS011;54866;53.458;14.540;2023-05-01T09:15:22;3.50;;;2.20;;
68076;SDS011;54866;53.458;14.540;2023-05-01T09:17:54;4.50;;;2.50;;
68076;SDS011;54866;53.458;14.540;2023-05-01T09:20:26;5.20;;;2.10;;
68076;SDS011;54866;53.458;14.540;2023-05-01T09:22:57;4.40;;;2.70;;
68076;SDS011;54866;53.458;14.540;2023-05-01T09:25:27;5.60;;;2.30;;
68076;SDS011;54866;53.458;14.540;2023-05-01T09:27:57;5.20;;;2.60;;
68076;SDS011;54866;53.458;14.540;2023-05-01T09:30:30;3.80;;;2.80;;
68076;SDS011;54866;53.458;14.540;2023-05-01T09:33:08;4.70;;;2.60;;
68076;SDS011;54866;53.458;14.540;2023-05-01T09:35:48;4.50;;;2.70;;
68076;SDS011;54866;53.458;14.540;2023-05-01T09:38:20;6.30;;;2.80;;
68076;SDS011;54866;53.458;14.540;2023-05-01T09:40:51;5.60;;;2.80;;
68076;SDS011;54866;53.458;14.540;2023-05-01T09:43:26;5.00;;;2.80;;
68076;SDS011;54866;53.458;14.540;2023-05-01T09:46:00;5.10;;;2.20;;
68076;SDS011;54866;53.458;14.540;2023-05-01T09:48:32;4.40;;;2.50;;
68076;SDS011;54866;53.458;14.540;2023-05-01T09:51:10;6.40;;;3.50;;
68076;SDS011;54866;53.458;14.540;2023-05-01T09:53:49;3.60;;;2.10;;
68076;SDS011;54866;53.458;14.540;2023-05-01T09:56:19;4.20;;;2.30;;
68076;SDS011;54866;53.458;14.540;2023-05-01T09:58:50;3.70;;;2.10;;
68076;SDS011;54866;53.458;14.540;2023-05-01T10:01:36;3.70;;;2.10;;
68076;SDS011;54866;53.458;14.540;2023-05-01T10:04:07;4.10;;;2.60;;
68076;SDS011;54866;53.458;14.540;2023-05-01T10:06:37;3.80;;;2.40;;
68076;SDS011;54866;53.458;14.540;2023-05-01T10:09:07;3.50;;;2.40;;
68076;SDS011;54866;53.458;14.540;2023-05-01T10:11:48;4.60;;;2.30;;
68076;SDS011;54866;53.458;14.540;2023-05-01T10:14:21;5.40;;;2.20;;
68076;SDS011;54866;53.458;14.540;2023-05-01T10:16:52;5.20;;;2.30;;
68076;SDS011;54866;53.458;14.540;2023-05-01T10:19:23;4.40;;;2.50;;
68076;SDS011;54866;53.458;14.540;2023-05-01T10:21:52;4.40;;;2.60;;
68076;SDS011;54866;53.458;14.540;2023-05-01T10:24:22;3.70;;;2.20;;
68076;SDS011;54866;53.458;14.540;2023-05-01T10:26:52;3.00;;;2.10;;
68076;SDS011;54866;53.458;14.540;2023-05-01T10:29:23;3.90;;;2.00;;
68076;SDS011;54866;53.458;14.540;2023-05-01T10:31:56;5.00;;;2.50;;
68076;SDS011;54866;53.458;14.540;2023-05-01T10:34:26;5.20;;;3.40;;
68076;SDS011;54866;53.458;14.540;2023-05-01T10:36:58;4.80;;;3.00;;
68076;SDS011;54866;53.458;14.540;2023-05-01T10:39:33;5.20;;;2.90;;
68076;SDS011;54866;53.458;14.540;2023-05-01T10:42:04;4.00;;;2.10;;
68076;SDS011;54866;53.458;14.540;2023-05-01T10:44:36;5.30;;;2.60;;
68076;SDS011;54866;53.458;14.540;2023-05-01T10:50:13;4.20;;;2.40;;
68076;SDS011;54866;53.458;14.540;2023-05-01T10:55:46;3.60;;;2.10;;
68076;SDS011;54866;53.458;14.540;2023-05-01T11:01:30;3.40;;;1.70;;
68076;SDS011;54866;53.458;14.540;2023-05-01T11:04:00;3.10;;;2.20;;
68076;SDS011;54866;53.458;14.540;2023-05-01T11:06:33;3.60;;;2.20;;
68076;SDS011;54866;53.458;14.540;2023-05-01T11:12:07;4.00;;;2.40;;
68076;SDS011;54866;53.458;14.540;2023-05-01T11:17:46;4.50;;;2.20;;
68076;SDS011;54866;53.458;14.540;2023-05-01T11:23:19;4.10;;;2.50;;
68076;SDS011;54866;53.458;14.540;2023-05-01T11:25:57;3.40;;;1.90;;
68076;SDS011;54866;53.458;14.540;2023-05-01T11:28:31;7.10;;;2.10;;
68076;SDS011;54866;53.458;14.540;2023-05-01T11:31:02;4.00;;;1.90;;
68076;SDS011;54866;53.458;14.540;2023-05-01T11:33:32;3.40;;;1.80;;
68076;SDS011;54866;53.458;14.540;2023-05-01T11:36:02;6.60;;;2.50;;
68076;SDS011;54866;53.458;14.540;2023-05-01T11:38:32;4.10;;;2.20;;
68076;SDS011;54866;53.458;14.540;2023-05-01T11:41:02;4.00;;;2.60;;
68076;SDS011;54866;53.458;14.540;2023-05-01T11:43:32;5.90;;;2.50;;
68076;SDS011;54866;53.458;14.540;2023-05-01T11:48:49;5.40;;;2.10;;
68076;SDS011;54866;53.458;14.540;2023-05-01T11:51:19;3.80;;;2.20;;
68076;SDS011;54866;53.458;14.540;2023-05-01T11:53:59;4.00;;;2.10;;
68076;SDS011;54866;53.458;14.540;2023-05-01T11:56:30;3.60;;;2.20;;
68076;SDS011;54866;53.458;14.540;2023-05-01T11:59:09;3.20;;;2.00;;
68076;SDS011;54866;53.458;14.540;2023-05-01T12:01:41;2.60;;;1.60;;
68076;SDS011;54866;53.458;14.540;2023-05-01T12:04:12;3.90;;;2.00;;
68076;SDS011;54866;53.458;14.540;2023-05-01T12:06:50;2.80;;;2.00;;
68076;SDS011;54866;53.458;14.540;2023-05-01T12:09:21;5.70;;;1.90;;
68076;SDS011;54866;53.458;14.540;2023-05-01T12:11:52;5.90;;;2.50;;
68076;SDS011;54866;53.458;14.540;2023-05-01T12:14:22;3.70;;;2.20;;
68076;SDS011;54866;53.458;14.540;2023-05-01T12:16:51;5.00;;;2.20;;
68076;SDS011;54866;53.458;14.540;2023-05-01T12:19:22;3.90;;;1.80;;
68076;SDS011;54866;53.458;14.540;2023-05-01T12:22:05;3.60;;;2.00;;
68076;SDS011;54866;53.458;14.540;2023-05-01T12:24:35;4.50;;;2.40;;
68076;SDS011;54866;53.458;14.540;2023-05-01T12:27:05;4.20;;;2.20;;
68076;SDS011;54866;53.458;14.540;2023-05-01T12:29:41;4.10;;;2.70;;
68076;SDS011;54866;53.458;14.540;2023-05-01T12:32:12;5.30;;;2.70;;
68076;SDS011;54866;53.458;14.540;2023-05-01T12:34:42;3.30;;;2.30;;
68076;SDS011;54866;53.458;14.540;2023-05-01T12:37:12;3.80;;;2.10;;
68076;SDS011;54866;53.458;14.540;2023-05-01T12:39:42;3.20;;;1.80;;
68076;SDS011;54866;53.458;14.540;2023-05-01T12:42:12;4.20;;;2.10;;
68076;SDS011;54866;53.458;14.540;2023-05-01T12:44:43;3.40;;;1.80;;
68076;SDS011;54866;53.458;14.540;2023-05-01T12:47:13;3.00;;;1.90;;
68076;SDS011;54866;53.458;14.540;2023-05-01T12:49:42;3.70;;;2.10;;
68076;SDS011;54866;53.458;14.540;2023-05-01T12:52:12;5.20;;;2.50;;
68076;SDS011;54866;53.458;14.540;2023-05-01T12:54:42;4.10;;;2.50;;
68076;SDS011;54866;53.458;14.540;2023-05-01T12:57:12;4.20;;;2.20;;
68076;SDS011;54866;53.458;14.540;2023-05-01T12:59:43;4.10;;;2.40;;
68076;SDS011;54866;53.458;14.540;2023-05-01T13:02:15;4.10;;;2.30;;
68076;SDS011;54866;53.458;14.540;2023-05-01T13:04:45;3.80;;;2.20;;
68076;SDS011;54866;53.458;14.540;2023-05-01T13:07:16;4.90;;;2.30;;
68076;SDS011;54866;53.458;14.540;2023-05-01T13:09:52;3.60;;;2.00;;
68076;SDS011;54866;53.458;14.540;2023-05-01T13:12:24;4.40;;;2.30;;
68076;SDS011;54866;53.458;14.540;2023-05-01T13:14:54;3.10;;;2.10;;
68076;SDS011;54866;53.458;14.540;2023-05-01T13:17:25;3.40;;;2.60;;
68076;SDS011;54866;53.458;14.540;2023-05-01T13:19:57;5.50;;;2.50;;
68076;SDS011;54866;53.458;14.540;2023-05-01T13:22:28;5.70;;;2.40;;
68076;SDS011;54866;53.458;14.540;2023-05-01T13:24:59;4.40;;;2.00;;
68076;SDS011;54866;53.458;14.540;2023-05-01T13:27:30;4.40;;;2.60;;
68076;SDS011;54866;53.458;14.540;2023-05-01T13:30:00;6.00;;;2.30;;
68076;SDS011;54866;53.458;14.540;2023-05-01T13:32:30;4.50;;;2.20;;
68076;SDS011;54866;53.458;14.540;2023-05-01T13:35:00;4.10;;;2.50;;
68076;SDS011;54866;53.458;14.540;2023-05-01T13:37:30;4.20;;;2.00;;
68076;SDS011;54866;53.458;14.540;2023-05-01T13:40:01;7.00;;;2.70;;
68076;SDS011;54866;53.458;14.540;2023-05-01T13:42:32;3.60;;;1.90;;
68076;SDS011;54866;53.458;14.540;2023-05-01T13:45:03;4.30;;;2.40;;
68076;SDS011;54866;53.458;14.540;2023-05-01T13:47:34;3.90;;;2.20;;
68076;SDS011;54866;53.458;14.540;2023-05-01T13:50:08;4.50;;;2.80;;
68076;SDS011;54866;53.458;14.540;2023-05-01T13:52:40;4.30;;;2.20;;
68076;SDS011;54866;53.458;14.540;2023-05-01T13:55:11;5.30;;;2.40;;
68076;SDS011;54866;53.458;14.540;2023-05-01T13:57:41;4.30;;;2.50;;
68076;SDS011;54866;53.458;14.540;2023-05-01T14:00:13;3.40;;;2.10;;
68076;SDS011;54866;53.458;14.540;2023-05-01T14:02:45;4.60;;;2.40;;
68076;SDS011;54866;53.458;14.540;2023-05-01T14:05:15;5.30;;;2.10;;
68076;SDS011;54866;53.458;14.540;2023-05-01T14:07:52;5.20;;;2.10;;
68076;SDS011;54866;53.458;14.540;2023-05-01T14:10:22;3.50;;;2.10;;
68076;SDS011;54866;53.458;14.540;2023-05-01T14:12:55;5.00;;;2.20;;
68076;SDS011;54866;53.458;14.540;2023-05-01T14:15:25;4.40;;;2.20;;
68076;SDS011;54866;53.458;14.540;2023-05-01T14:17:55;3.50;;;2.40;;
68076;SDS011;54866;53.458;14.540;2023-05-01T14:20:26;3.80;;;2.20;;
68076;SDS011;54866;53.458;14.540;2023-05-01T14:22:55;4.60;;;2.40;;
68076;SDS011;54866;53.458;14.540;2023-05-01T14:25:26;3.90;;;2.40;;
68076;SDS011;54866;53.458;14.540;2023-05-01T14:27:59;5.10;;;2.30;;
68076;SDS011;54866;53.458;14.540;2023-05-01T14:30:32;3.10;;;2.30;;
68076;SDS011;54866;53.458;14.540;2023-05-01T14:33:04;4.20;;;2.60;;
68076;SDS011;54866;53.458;14.540;2023-05-01T14:35:35;3.50;;;2.20;;
68076;SDS011;54866;53.458;14.540;2023-05-01T14:38:11;3.70;;;2.70;;
68076;SDS011;54866;53.458;14.540;2023-05-01T14:40:42;4.60;;;2.70;;
68076;SDS011;54866;53.458;14.540;2023-05-01T14:43:15;3.50;;;1.90;;
68076;SDS011;54866;53.458;14.540;2023-05-01T14:45:45;4.80;;;2.60;;
68076;SDS011;54866;53.458;14.540;2023-05-01T14:48:22;4.20;;;2.20;;
68076;SDS011;54866;53.458;14.540;2023-05-01T14:50:56;3.80;;;2.20;;
68076;SDS011;54866;53.458;14.540;2023-05-01T14:53:27;4.50;;;2.30;;
68076;SDS011;54866;53.458;14.540;2023-05-01T14:56:00;4.20;;;2.40;;
68076;SDS011;54866;53.458;14.540;2023-05-01T14:58:29;4.30;;;2.40;;
68076;SDS011;54866;53.458;14.540;2023-05-01T15:00:59;3.50;;;2.30;;
68076;SDS011;54866;53.458;14.540;2023-05-01T15:03:28;5.20;;;2.10;;
68076;SDS011;54866;53.458;14.540;2023-05-01T15:05:58;3.50;;;2.20;;
68076;SDS011;54866;53.458;14.540;2023-05-01T15:08:29;4.80;;;2.60;;
68076;SDS011;54866;53.458;14.540;2023-05-01T15:10:59;5.10;;;2.50;;
68076;SDS011;54866;53.458;14.540;2023-05-01T15:13:28;4.30;;;2.60;;
68076;SDS011;54866;53.458;14.540;2023-05-01T15:15:58;5.40;;;2.50;;
68076;SDS011;54866;53.458;14.540;2023-05-01T15:18:27;3.30;;;2.20;;
68076;SDS011;54866;53.458;14.540;2023-05-01T15:20:57;4.70;;;2.00;;
68076;SDS011;54866;53.458;14.540;2023-05-01T15:23:27;4.50;;;2.30;;
68076;SDS011;54866;53.458;14.540;2023-05-01T15:25:57;5.10;;;2.80;;
68076;SDS011;54866;53.458;14.540;2023-05-01T15:28:27;5.10;;;2.60;;
68076;SDS011;54866;53.458;14.540;2023-05-01T15:30:58;4.10;;;2.00;;
68076;SDS011;54866;53.458;14.540;2023-05-01T15:33:27;4.40;;;2.30;;